Alston, Georgia
Current Conditions -  °F | °C
As of 10:35 AM on Monday 22 Dec 2014 (Local Time) from KVDI Reporting Station
Light Rain Light Rain  
Wind Chill: 42°   Ceiling: 200
Heat Index: 46°   Visibility: 1.2mi
Dew Point: 46°   Wind: 8mph
Humidity: 100%   Direction: 60°ENE
Pressure: 30.03"   Gusts: NA
Location:  32.08°N, 82.48°W
Report Text: KVDI 221535Z AUTO 06007KT 1 1/4SM -RA OVC002 08/08 A3003 RMK AO2 LTG DSNT SW
Loading
Personal Weather Stations






























Interactive Weather Map New forecast layout! Learn more

10-Day Weather Forecast

Advertisements
Track Severe Weather on mobile